createdAt,value
2023-03-13T00:01:37.449Z,76.66
2023-03-13T00:04:06.630Z,76.70
2023-03-13T00:06:36.840Z,76.71
2023-03-13T00:09:07.267Z,76.95
2023-03-13T00:11:36.480Z,76.49
2023-03-13T00:14:06.185Z,76.80
2023-03-13T00:16:38.771Z,76.48
2023-03-13T00:19:09.339Z,76.75
2023-03-13T00:21:42.279Z,76.39
2023-03-13T00:24:13.205Z,77.45
2023-03-13T00:26:42.191Z,76.94
2023-03-13T00:29:11.151Z,77.01
2023-03-13T00:31:40.214Z,77.60
2023-03-13T00:34:09.092Z,76.92
2023-03-13T00:36:39.118Z,78.41
2023-03-13T00:39:08.388Z,77.71
2023-03-13T00:41:38.114Z,78.17
2023-03-13T00:44:07.075Z,78.01
2023-03-13T00:46:36.728Z,77.38
2023-03-13T00:49:05.649Z,77.37
2023-03-13T00:51:35.575Z,77.30
2023-03-13T00:54:05.754Z,78.23
2023-03-13T00:56:35.037Z,76.57
2023-03-13T00:59:04.019Z,76.70
2023-03-13T01:01:35.549Z,76.54
2023-03-13T01:04:10.381Z,77.12
2023-03-13T01:06:42.325Z,77.09
2023-03-13T01:09:14.237Z,77.13
2023-03-13T01:11:45.036Z,75.98
2023-03-13T01:14:20.652Z,75.54
2023-03-13T01:16:50.259Z,76.78
2023-03-13T01:19:19.266Z,76.31
2023-03-13T01:21:49.034Z,76.56
2023-03-13T01:24:18.698Z,76.35
2023-03-13T01:26:48.563Z,76.99
2023-03-13T01:29:17.885Z,77.81
2023-03-13T01:31:47.297Z,77.08
2023-03-13T01:34:16.380Z,78.33
2023-03-13T01:36:46.603Z,77.70
2023-03-13T01:39:15.637Z,78.22
2023-03-13T01:41:44.923Z,78.86
2023-03-13T01:44:22.033Z,79.21
2023-03-13T01:46:51.584Z,78.38
2023-03-13T01:49:29.786Z,78.17
2023-03-13T01:52:21.447Z,78.46
2023-03-13T01:55:00.700Z,77.26
2023-03-13T01:57:30.644Z,77.90
2023-03-13T02:00:06.225Z,77.87
2023-03-13T02:02:43.697Z,77.49
2023-03-13T02:05:13.754Z,75.69
2023-03-13T02:07:44.619Z,74.66
2023-03-13T02:10:15.998Z,74.28
2023-03-13T02:12:45.759Z,73.63
2023-03-13T02:15:16.762Z,73.11
2023-03-13T02:17:47.877Z,71.98
2023-03-13T02:20:17.968Z,70.56
2023-03-13T02:25:41.898Z,67.84
2023-03-13T02:28:15.438Z,67.23
2023-03-13T02:30:45.703Z,67.83
2023-03-13T02:33:15.821Z,67.00
2023-03-13T02:35:46.758Z,66.93
2023-03-13T02:38:21.466Z,65.86
2023-03-13T02:40:52.819Z,65.81
2023-03-13T02:43:25.976Z,63.59
2023-03-13T02:46:04.677Z,63.53
2023-03-13T02:48:40.908Z,62.78
2023-03-13T02:51:16.519Z,62.56
2023-03-13T02:53:46.256Z,61.51
2023-03-13T02:56:16.802Z,60.82
2023-03-13T02:58:50.426Z,60.57
2023-03-13T03:01:23.898Z,60.49
2023-03-13T03:03:53.674Z,59.64
2023-03-13T03:06:22.566Z,59.28
2023-03-13T03:08:52.222Z,58.94
2023-03-13T03:11:21.718Z,58.08
2023-03-13T03:13:56.453Z,59.01
2023-03-13T03:16:26.922Z,59.87
2023-03-13T03:18:56.225Z,58.15
2023-03-13T03:21:25.254Z,58.47
2023-03-13T03:23:54.531Z,57.79
2023-03-13T03:26:23.473Z,56.85
2023-03-13T03:28:53.008Z,56.51
2023-03-13T03:31:22.283Z,57.02
2023-03-13T03:33:51.481Z,54.52
2023-03-13T03:36:23.538Z,55.10
2023-03-13T03:38:53.543Z,54.32
2023-03-13T03:41:27.173Z,54.10
2023-03-13T03:43:57.364Z,54.29
2023-03-13T03:46:32.097Z,53.51
2023-03-13T03:49:01.121Z,53.42
2023-03-13T03:51:29.815Z,53.97
2023-03-13T03:53:59.012Z,52.37
2023-03-13T03:56:29.845Z,51.40
2023-03-13T03:59:01.193Z,51.69
2023-03-13T04:02:02.423Z,49.69
2023-03-13T04:04:33.117Z,50.16
2023-03-13T04:07:23.502Z,49.46
2023-03-13T04:09:52.974Z,49.93
2023-03-13T04:12:28.063Z,47.72
2023-03-13T04:14:57.787Z,47.52
2023-03-13T04:17:29.411Z,48.29
2023-03-13T04:20:01.797Z,47.58
2023-03-13T04:22:32.476Z,48.80
2023-03-13T04:25:01.989Z,48.20
2023-03-13T04:27:33.639Z,47.46
2023-03-13T04:30:03.889Z,48.09
2023-03-13T04:32:53.782Z,47.90
2023-03-13T04:35:48.897Z,48.17
2023-03-13T04:38:47.252Z,46.92
2023-03-13T04:41:33.574Z,46.99
2023-03-13T04:44:16.621Z,45.31
2023-03-13T04:46:57.694Z,45.08
2023-03-13T04:49:49.827Z,44.20
2023-03-13T04:52:31.605Z,43.92
2023-03-13T04:55:00.608Z,43.43
2023-03-13T04:57:41.438Z,43.99
2023-03-13T05:00:36.490Z,44.01
2023-03-13T05:03:34.445Z,43.85
2023-03-13T05:06:23.582Z,43.86
2023-03-13T05:09:11.228Z,43.44
2023-03-13T05:12:00.292Z,42.05
2023-03-13T05:14:52.254Z,41.35
2023-03-13T05:17:39.225Z,41.32
2023-03-13T05:20:20.732Z,40.92
2023-03-13T05:23:07.621Z,41.00
2023-03-13T05:26:02.814Z,41.33
2023-03-13T05:28:54.150Z,42.54
2023-03-13T05:31:40.615Z,41.90
2023-03-13T05:34:30.072Z,42.24
2023-03-13T05:37:28.256Z,42.05
2023-03-13T05:40:26.480Z,42.25
2023-03-13T05:43:13.667Z,42.44
2023-03-13T05:46:01.211Z,42.92
2023-03-13T05:48:56.217Z,44.50
2023-03-13T05:51:50.319Z,46.75
2023-03-13T05:54:33.144Z,48.03
2023-03-13T05:57:20.329Z,49.45
2023-03-13T06:00:02.248Z,49.67
2023-03-13T06:03:03.611Z,50.04
2023-03-13T06:05:37.803Z,49.84
2023-03-13T06:08:14.737Z,48.69
2023-03-13T06:10:43.805Z,48.69
2023-03-13T06:13:19.716Z,48.04
2023-03-13T06:15:56.414Z,46.06
2023-03-13T06:18:42.004Z,47.64
2023-03-13T06:21:11.022Z,45.68
2023-03-13T06:23:39.775Z,44.45
2023-03-13T06:26:08.692Z,43.15
2023-03-13T06:28:39.410Z,43.38
2023-03-13T06:31:09.314Z,40.46
2023-03-13T06:33:38.246Z,41.31
2023-03-13T06:36:07.494Z,40.40
2023-03-13T06:38:36.421Z,39.37
2023-03-13T06:41:05.620Z,38.57
2023-03-13T06:43:37.571Z,36.68
2023-03-13T06:46:07.041Z,37.66
2023-03-13T06:48:35.938Z,37.83
2023-03-13T06:51:05.005Z,38.25
2023-03-13T06:53:33.839Z,38.49
2023-03-13T06:56:03.380Z,37.86
2023-03-13T06:58:33.118Z,37.73
2023-03-13T07:01:07.580Z,36.85
2023-03-13T07:03:37.179Z,37.09
2023-03-13T07:06:06.904Z,37.87
2023-03-13T07:08:36.699Z,37.16
2023-03-13T07:11:07.479Z,36.92
2023-03-13T07:13:37.074Z,36.75
2023-03-13T07:16:07.468Z,37.56
2023-03-13T07:18:36.984Z,37.83
2023-03-13T07:21:06.442Z,37.15
2023-03-13T07:23:36.401Z,37.32
2023-03-13T07:26:07.232Z,37.21
2023-03-13T07:28:37.871Z,37.21
2023-03-13T07:31:09.978Z,36.99
2023-03-13T07:33:39.261Z,34.94
2023-03-13T07:36:08.416Z,36.45
2023-03-13T07:39:15.419Z,36.74
2023-03-13T07:41:43.988Z,36.62
2023-03-13T07:44:17.196Z,35.75
2023-03-13T07:46:45.723Z,35.43
2023-03-13T07:49:14.011Z,35.89
2023-03-13T07:51:44.236Z,37.12
2023-03-13T07:54:13.169Z,36.88
2023-03-13T07:56:41.639Z,38.04
2023-03-13T07:59:10.485Z,37.76
2023-03-13T08:01:38.965Z,37.40
2023-03-13T08:04:08.109Z,36.50
2023-03-13T08:06:40.795Z,36.34
2023-03-13T08:09:09.982Z,37.06
2023-03-13T08:11:39.925Z,36.87
2023-03-13T08:14:08.685Z,36.48
2023-03-13T08:16:37.209Z,34.54
2023-03-13T08:24:57.166Z,36.80
2023-03-13T08:27:49.056Z,34.75
2023-03-13T08:30:38.015Z,35.15
2023-03-13T08:33:26.981Z,35.30
2023-03-13T08:36:18.456Z,35.80
2023-03-13T08:39:17.468Z,35.26
2023-03-13T08:41:46.623Z,36.13
2023-03-13T08:44:16.098Z,36.74
2023-03-13T08:48:43.926Z,35.53
2023-03-13T08:51:15.826Z,34.26
2023-03-13T08:53:45.863Z,33.86
2023-03-13T08:56:20.266Z,34.29
2023-03-13T08:58:59.569Z,33.59
2023-03-13T09:01:32.398Z,34.35
2023-03-13T09:04:04.261Z,34.68
2023-03-13T09:06:38.090Z,31.50
2023-03-13T09:09:08.995Z,32.16
2023-03-13T09:11:40.316Z,34.61
2023-03-13T09:14:10.012Z,33.10
2023-03-13T09:16:39.193Z,33.52
2023-03-13T09:19:08.335Z,33.14
2023-03-13T09:21:37.430Z,31.76
2023-03-13T09:24:06.616Z,35.53
2023-03-13T09:26:35.552Z,33.42
2023-03-13T09:29:04.465Z,34.38
2023-03-13T09:31:34.903Z,33.05
2023-03-13T09:34:04.418Z,32.99
2023-03-13T09:36:33.213Z,36.32
2023-03-13T09:39:02.206Z,35.63
2023-03-13T09:41:59.855Z,34.57
2023-03-13T09:44:37.606Z,33.76
2023-03-13T09:47:22.848Z,33.77
2023-03-13T09:50:12.290Z,33.77
2023-03-13T09:52:42.640Z,34.56
2023-03-13T09:55:18.389Z,33.64
2023-03-13T09:58:03.607Z,33.25
2023-03-13T10:00:42.132Z,35.63
2023-03-13T10:03:40.329Z,35.13
2023-03-13T10:06:21.081Z,33.76
2023-03-13T10:08:51.259Z,33.59
2023-03-13T10:11:44.603Z,32.36
2023-03-13T10:14:40.606Z,32.30
2023-03-13T10:17:29.821Z,32.45
2023-03-13T10:20:23.009Z,33.90
2023-03-13T10:22:59.472Z,33.60
2023-03-13T10:25:42.267Z,36.01
2023-03-13T10:28:17.703Z,36.72
2023-03-13T10:30:53.520Z,35.37
2023-03-13T10:33:28.949Z,35.70
2023-03-13T10:36:02.450Z,31.31
2023-03-13T10:38:35.859Z,30.29
2023-03-13T10:41:34.815Z,31.21
2023-03-13T10:44:09.569Z,31.87
2023-03-13T10:46:43.436Z,31.19
2023-03-13T10:49:20.962Z,31.89
2023-03-13T10:52:00.541Z,35.47
2023-03-13T10:54:31.098Z,37.93
2023-03-13T10:57:23.045Z,38.10
2023-03-13T10:59:54.265Z,36.96
2023-03-13T11:02:37.006Z,36.50
2023-03-13T11:05:27.868Z,35.17
2023-03-13T11:07:57.789Z,35.83
2023-03-13T11:10:33.315Z,35.22
2023-03-13T11:13:02.770Z,36.49
2023-03-13T11:15:40.786Z,37.97
2023-03-13T11:18:15.012Z,37.01
2023-03-13T11:20:47.035Z,36.71
2023-03-13T11:23:30.765Z,36.41
2023-03-13T11:26:11.967Z,36.70
2023-03-13T11:29:03.519Z,37.22
2023-03-13T11:31:47.597Z,36.47
2023-03-13T11:34:52.757Z,36.53
2023-03-13T11:37:24.112Z,37.20
2023-03-13T11:40:11.302Z,36.59
2023-03-13T11:42:58.912Z,36.12
2023-03-13T11:45:52.209Z,36.23
2023-03-13T11:48:38.738Z,37.53
2023-03-13T11:51:20.721Z,38.25
2023-03-13T11:54:25.814Z,39.25
2023-03-13T11:56:59.699Z,39.22
2023-03-13T11:59:49.210Z,38.80
2023-03-13T12:02:56.400Z,39.09
2023-03-13T12:05:27.423Z,40.08
2023-03-13T12:08:07.312Z,39.83
2023-03-13T12:10:45.277Z,38.72
2023-03-13T12:13:43.274Z,39.27
2023-03-13T12:16:22.350Z,38.53
2023-03-13T12:18:53.556Z,38.73
2023-03-13T12:21:54.146Z,38.13
2023-03-13T12:24:28.883Z,39.46
2023-03-13T12:27:03.548Z,39.38
2023-03-13T12:29:59.842Z,39.86
2023-03-13T12:32:40.317Z,40.00
2023-03-13T12:35:41.474Z,40.10
2023-03-13T12:38:26.070Z,40.34
2023-03-13T12:41:10.294Z,40.88
2023-03-13T12:43:49.667Z,41.39
2023-03-13T12:46:38.160Z,42.25
2023-03-13T12:49:28.574Z,42.62
2023-03-13T12:52:34.388Z,43.07
2023-03-13T12:55:31.754Z,44.18
2023-03-13T12:58:24.746Z,44.36
2023-03-13T13:00:56.562Z,45.37
2023-03-13T13:04:01.581Z,45.53
2023-03-13T13:07:20.166Z,46.08
2023-03-13T13:10:18.284Z,47.20
2023-03-13T13:13:16.524Z,47.51
2023-03-13T13:16:00.516Z,47.40
2023-03-13T13:18:31.562Z,47.69
2023-03-13T13:21:06.418Z,47.67
2023-03-13T13:23:39.880Z,47.91
2023-03-13T13:26:29.770Z,47.75
2023-03-13T13:29:01.401Z,48.35
2023-03-13T13:31:49.120Z,49.11
2023-03-13T13:34:32.709Z,48.76
2023-03-13T13:37:24.650Z,49.44
2023-03-13T13:39:55.322Z,50.10
2023-03-13T13:42:33.069Z,51.31
2023-03-13T13:45:06.778Z,51.50
2023-03-13T13:47:35.780Z,51.43
2023-03-13T13:50:04.597Z,51.83
2023-03-13T13:52:43.893Z,53.42
2023-03-13T13:55:27.848Z,53.87
2023-03-13T13:58:12.280Z,53.66
2023-03-13T14:01:01.264Z,54.34
2023-03-13T14:03:33.092Z,54.99
2023-03-13T14:06:13.064Z,54.94
2023-03-13T14:08:45.963Z,55.60
2023-03-13T14:11:33.896Z,57.40
2023-03-13T14:14:16.231Z,57.97
2023-03-13T14:16:53.213Z,58.29
2023-03-13T14:19:39.213Z,58.56
2023-03-13T14:22:12.712Z,58.90
2023-03-13T14:24:42.024Z,59.41
2023-03-13T14:27:22.443Z,59.65
2023-03-13T14:30:12.597Z,59.38
2023-03-13T14:32:42.115Z,59.74
2023-03-13T14:35:13.221Z,59.28
2023-03-13T14:37:51.885Z,59.65
2023-03-13T14:40:24.708Z,59.97
2023-03-13T14:43:02.210Z,60.24
2023-03-13T14:45:40.163Z,60.52
2023-03-13T14:48:30.230Z,60.79
2023-03-13T14:51:15.280Z,60.63
2023-03-13T14:54:02.758Z,61.82
2023-03-13T14:56:43.152Z,62.16
2023-03-13T14:59:19.000Z,62.34
2023-03-13T15:01:48.326Z,61.83
2023-03-13T15:04:17.079Z,62.38
2023-03-13T15:06:46.117Z,62.69
2023-03-13T15:09:23.785Z,62.34
2023-03-13T15:11:59.467Z,62.48
2023-03-13T15:14:41.262Z,62.98
2023-03-13T15:17:23.047Z,62.57
2023-03-13T15:19:58.306Z,63.02
2023-03-13T15:22:32.926Z,63.73
2023-03-13T15:25:06.917Z,64.00
2023-03-13T15:27:36.898Z,63.96
2023-03-13T15:30:06.132Z,64.24
2023-03-13T15:32:40.179Z,64.13
2023-03-13T15:35:31.475Z,64.14
2023-03-13T15:38:02.518Z,64.79
2023-03-13T15:40:34.610Z,64.71
2023-03-13T15:43:03.554Z,64.69
2023-03-13T15:45:32.454Z,64.37
2023-03-13T15:48:02.024Z,64.29
2023-03-13T15:50:31.908Z,64.16
2023-03-13T15:53:01.842Z,64.17
2023-03-13T15:55:31.295Z,64.25
2023-03-13T15:58:00.234Z,65.48
2023-03-13T16:00:29.094Z,65.53
2023-03-13T16:02:58.160Z,65.77
2023-03-13T16:05:26.864Z,65.50
2023-03-13T16:07:56.040Z,65.83
2023-03-13T16:10:28.890Z,66.02
2023-03-13T16:12:58.020Z,67.29
2023-03-13T16:15:26.816Z,67.13
2023-03-13T16:17:57.879Z,67.17
2023-03-13T16:20:27.475Z,67.05
2023-03-13T16:22:57.090Z,67.60
2023-03-13T16:25:26.825Z,67.70
2023-03-13T16:27:57.320Z,67.72
2023-03-13T16:30:31.600Z,67.69
2023-03-13T16:33:01.492Z,67.91
2023-03-13T16:35:30.869Z,68.15
2023-03-13T16:37:59.982Z,68.34
2023-03-13T16:40:33.274Z,68.98
2023-03-13T16:43:02.660Z,69.34
2023-03-13T16:45:31.574Z,69.79
2023-03-13T16:48:00.736Z,70.01
2023-03-13T16:50:38.006Z,69.70
2023-03-13T16:53:06.957Z,68.67
2023-03-13T16:55:38.193Z,68.63
2023-03-13T16:58:07.202Z,67.95
2023-03-13T17:00:37.661Z,66.88
2023-03-13T17:03:06.756Z,66.12
2023-03-13T17:05:35.582Z,65.83
2023-03-13T17:08:04.941Z,65.53
2023-03-13T17:10:34.779Z,65.69
2023-03-13T17:13:04.398Z,64.95
2023-03-13T17:15:33.485Z,64.27
2023-03-13T17:18:02.228Z,62.47
2023-03-13T17:20:31.707Z,61.47
2023-03-13T17:23:01.962Z,61.05
2023-03-13T17:25:30.943Z,59.76
2023-03-13T17:27:59.720Z,58.65
2023-03-13T17:30:31.236Z,58.23
2023-03-13T17:33:01.783Z,57.73
2023-03-13T17:35:30.817Z,57.05
2023-03-13T17:37:59.610Z,56.75
2023-03-13T17:40:30.896Z,56.45
2023-03-13T17:43:00.003Z,56.43
2023-03-13T17:45:28.739Z,56.38
2023-03-13T17:47:57.888Z,56.78
2023-03-13T17:50:28.470Z,56.33
2023-03-13T17:52:57.867Z,55.72
2023-03-13T17:55:26.518Z,55.22
2023-03-13T17:57:55.511Z,55.04
2023-03-13T18:00:33.626Z,55.25
2023-03-13T18:03:02.887Z,56.14
2023-03-13T18:05:31.738Z,55.84
2023-03-13T18:08:01.126Z,55.78
2023-03-13T18:10:31.618Z,55.95
2023-03-13T18:13:00.509Z,56.25
2023-03-13T18:15:29.200Z,56.29
2023-03-13T18:17:58.166Z,56.36
2023-03-13T18:20:29.543Z,56.87
2023-03-13T18:23:01.119Z,57.03
2023-03-13T18:25:31.005Z,57.73
2023-03-13T18:28:00.229Z,57.83
2023-03-13T18:30:29.901Z,58.12
2023-03-13T18:32:58.677Z,58.54
2023-03-13T18:35:27.602Z,58.75
2023-03-13T18:37:56.367Z,58.90
2023-03-13T18:40:28.407Z,59.08
2023-03-13T18:42:57.447Z,59.27
2023-03-13T18:45:27.730Z,59.47
2023-03-13T18:47:56.843Z,59.54
2023-03-13T18:50:28.704Z,59.43
2023-03-13T18:53:00.356Z,59.87
2023-03-13T18:55:31.637Z,60.06
2023-03-13T18:58:00.736Z,60.21
2023-03-13T19:00:31.631Z,60.99
2023-03-13T19:03:00.583Z,61.60
2023-03-13T19:05:29.702Z,61.43
2023-03-13T19:07:58.722Z,61.27
2023-03-13T19:10:32.503Z,61.23
2023-03-13T19:13:01.549Z,60.86
2023-03-13T19:15:35.393Z,60.75
2023-03-13T19:18:04.520Z,60.00
2023-03-13T19:20:33.445Z,60.40
2023-03-13T19:23:02.486Z,59.98
2023-03-13T19:25:31.305Z,60.38
2023-03-13T19:28:00.266Z,61.01
2023-03-13T19:30:29.041Z,61.14
2023-03-13T19:32:58.137Z,60.88
2023-03-13T19:35:27.639Z,60.24
2023-03-13T19:37:56.630Z,59.58
2023-03-13T19:40:29.575Z,57.61
2023-03-13T19:42:58.815Z,56.63
2023-03-13T19:45:28.574Z,56.18
2023-03-13T19:47:57.556Z,54.30
2023-03-13T19:50:30.750Z,53.73
2023-03-13T19:52:59.867Z,53.46
2023-03-13T19:55:28.715Z,52.57
2023-03-13T19:57:57.552Z,52.04
2023-03-13T20:00:28.910Z,50.85
2023-03-13T20:02:58.495Z,50.36
2023-03-13T20:05:30.278Z,49.77
2023-03-13T20:07:59.405Z,49.93
2023-03-13T20:10:28.118Z,49.96
2023-03-13T20:12:57.057Z,49.30
2023-03-13T20:15:25.923Z,49.41
2023-03-13T20:17:57.371Z,48.96
2023-03-13T20:20:26.347Z,48.57
2023-03-13T20:22:55.115Z,48.76
2023-03-13T20:25:25.327Z,48.97
2023-03-13T20:27:54.406Z,49.33
2023-03-13T20:30:24.206Z,49.49
2023-03-13T20:32:59.724Z,49.66
2023-03-13T20:35:29.785Z,49.66
2023-03-13T20:38:00.590Z,50.27
2023-03-13T20:40:29.762Z,49.97
2023-03-13T20:42:59.644Z,49.95
2023-03-13T20:45:32.909Z,50.57
2023-03-13T20:48:01.809Z,50.88
2023-03-13T20:50:30.633Z,50.82
2023-03-13T20:52:59.608Z,51.13
2023-03-13T20:55:28.285Z,51.19
2023-03-13T20:57:57.304Z,50.61
2023-03-13T21:00:26.214Z,50.59
2023-03-13T21:02:55.277Z,51.01
2023-03-13T21:05:24.022Z,50.61
2023-03-13T21:07:53.165Z,50.46
2023-03-13T21:10:22.250Z,50.88
2023-03-13T21:12:51.453Z,51.09
2023-03-13T21:15:20.544Z,51.70
2023-03-13T21:17:49.583Z,51.08
2023-03-13T21:20:18.313Z,50.75
2023-03-13T21:22:47.312Z,50.69
2023-03-13T21:25:16.425Z,51.07
2023-03-13T21:27:45.437Z,51.02
2023-03-13T21:30:19.075Z,51.64
2023-03-13T21:32:49.005Z,52.11
2023-03-13T21:35:18.356Z,52.30
2023-03-13T21:37:49.257Z,52.53
2023-03-13T21:40:18.269Z,52.69
2023-03-13T21:42:46.941Z,52.46
2023-03-13T21:45:15.832Z,52.69
2023-03-13T21:47:44.524Z,52.69
2023-03-13T21:50:14.345Z,52.39
2023-03-13T21:52:43.309Z,51.79
2023-03-13T21:55:14.187Z,51.87
2023-03-13T21:57:43.464Z,52.37
2023-03-13T22:00:15.025Z,52.04
2023-03-13T22:02:44.312Z,51.65
2023-03-13T22:05:13.521Z,52.15
2023-03-13T22:07:42.523Z,52.32
2023-03-13T22:10:11.902Z,52.26
2023-03-13T22:12:40.932Z,52.16
2023-03-13T22:15:10.508Z,52.30
2023-03-13T22:17:39.719Z,52.08
2023-03-13T22:20:09.471Z,52.03
2023-03-13T22:22:38.509Z,52.46
2023-03-13T22:25:07.641Z,52.92
2023-03-13T22:27:36.591Z,52.90
2023-03-13T22:30:05.768Z,52.53
2023-03-13T22:32:34.816Z,52.49
2023-03-13T22:35:03.670Z,53.13
2023-03-13T22:37:32.787Z,52.73
2023-03-13T22:40:03.115Z,52.89
2023-03-13T22:42:34.654Z,52.95
2023-03-13T22:45:03.953Z,53.20
2023-03-13T22:47:33.417Z,53.07
2023-03-13T22:50:02.369Z,53.75
2023-03-13T22:52:31.962Z,54.26
2023-03-13T22:55:00.992Z,53.95
2023-03-13T22:57:30.177Z,54.48
2023-03-13T23:00:00.244Z,54.50
2023-03-13T23:02:30.192Z,54.25
2023-03-13T23:05:02.069Z,54.48
2023-03-13T23:07:31.563Z,54.56
2023-03-13T23:10:00.834Z,54.87
2023-03-13T23:12:31.746Z,54.93
2023-03-13T23:15:01.074Z,54.71
2023-03-13T23:17:34.101Z,54.34
2023-03-13T23:20:03.445Z,54.10
2023-03-13T23:22:33.822Z,54.12
2023-03-13T23:25:02.885Z,54.70
2023-03-13T23:27:32.653Z,55.12
2023-03-13T23:30:02.834Z,54.99
2023-03-13T23:32:37.518Z,55.29
2023-03-13T23:35:07.746Z,54.91
2023-03-13T23:37:36.875Z,55.11
2023-03-13T23:40:11.846Z,55.64
2023-03-13T23:42:41.030Z,55.56
2023-03-13T23:45:10.082Z,55.25
2023-03-13T23:47:39.309Z,55.04
2023-03-13T23:50:08.285Z,55.15
2023-03-13T23:52:37.991Z,55.59
2023-03-13T23:55:07.478Z,55.41
2023-03-13T23:57:38.503Z,55.63
